sensor_id;sensor_type;location;lat;lon;timestamp;pressure;altitude;pressure_sealevel;temperature;humidity
71248;BME280;73325;51.138;6.950;2024-02-16T00:02:03;100607.00;;;13.88;79.04
71248;BME280;73325;51.138;6.950;2024-02-16T00:04:31;100605.00;;;13.90;79.02
71248;BME280;73325;51.138;6.950;2024-02-16T00:07:01;100602.00;;;13.91;78.70
71248;BME280;73325;51.138;6.950;2024-02-16T00:09:32;100600.00;;;13.92;79.02
71248;BME280;73325;51.138;6.950;2024-02-16T00:12:03;100599.00;;;13.93;79.19
71248;BME280;73325;51.138;6.950;2024-02-16T00:14:32;100597.00;;;13.93;79.31
71248;BME280;73325;51.138;6.950;2024-02-16T00:17:02;100597.00;;;13.92;79.01
71248;BME280;73325;51.138;6.950;2024-02-16T00:19:33;100599.00;;;13.91;79.20
71248;BME280;73325;51.138;6.950;2024-02-16T00:22:07;100599.00;;;13.90;79.10
71248;BME280;73325;51.138;6.950;2024-02-16T00:24:39;100599.00;;;13.89;78.92
71248;BME280;73325;51.138;6.950;2024-02-16T00:27:05;100600.00;;;13.89;79.03
71248;BME280;73325;51.138;6.950;2024-02-16T00:29:34;100600.00;;;13.90;79.01
71248;BME280;73325;51.138;6.950;2024-02-16T00:32:05;100601.00;;;13.90;79.57
71248;BME280;73325;51.138;6.950;2024-02-16T00:34:36;100604.00;;;13.89;79.51
71248;BME280;73325;51.138;6.950;2024-02-16T00:37:06;100605.00;;;13.87;79.91
71248;BME280;73325;51.138;6.950;2024-02-16T00:39:36;100606.00;;;13.85;79.85
71248;BME280;73325;51.138;6.950;2024-02-16T00:42:06;100607.00;;;13.82;80.19
71248;BME280;73325;51.138;6.950;2024-02-16T00:44:37;100608.00;;;13.80;79.88
71248;BME280;73325;51.138;6.950;2024-02-16T00:47:07;100609.00;;;13.78;79.88
71248;BME280;73325;51.138;6.950;2024-02-16T00:49:38;100609.00;;;13.78;79.68
71248;BME280;73325;51.138;6.950;2024-02-16T00:52:08;100607.00;;;13.78;79.58
71248;BME280;73325;51.138;6.950;2024-02-16T00:54:39;100605.00;;;13.79;79.41
71248;BME280;73325;51.138;6.950;2024-02-16T00:57:09;100604.00;;;13.80;79.82
71248;BME280;73325;51.138;6.950;2024-02-16T00:59:40;100603.00;;;13.81;79.43
71248;BME280;73325;51.138;6.950;2024-02-16T01:02:10;100602.00;;;13.82;79.46
71248;BME280;73325;51.138;6.950;2024-02-16T01:04:41;100601.00;;;13.83;79.35
71248;BME280;73325;51.138;6.950;2024-02-16T01:07:12;100599.00;;;13.84;79.39
71248;BME280;73325;51.138;6.950;2024-02-16T01:09:42;100598.00;;;13.86;79.17
71248;BME280;73325;51.138;6.950;2024-02-16T01:12:13;100597.00;;;13.88;79.10
71248;BME280;73325;51.138;6.950;2024-02-16T01:14:43;100597.00;;;13.90;78.91
71248;BME280;73325;51.138;6.950;2024-02-16T01:17:13;100596.00;;;13.92;78.59
71248;BME280;73325;51.138;6.950;2024-02-16T01:19:44;100596.00;;;13.94;78.72
71248;BME280;73325;51.138;6.950;2024-02-16T01:22:14;100594.00;;;13.96;78.76
71248;BME280;73325;51.138;6.950;2024-02-16T01:24:45;100593.00;;;13.98;78.82
71248;BME280;73325;51.138;6.950;2024-02-16T01:27:16;100593.00;;;13.99;78.83
71248;BME280;73325;51.138;6.950;2024-02-16T01:29:46;100592.00;;;14.00;78.65
71248;BME280;73325;51.138;6.950;2024-02-16T01:32:16;100590.00;;;14.02;78.66
71248;BME280;73325;51.138;6.950;2024-02-16T01:34:47;100586.00;;;14.02;78.68
71248;BME280;73325;51.138;6.950;2024-02-16T01:37:17;100584.00;;;14.03;78.79
71248;BME280;73325;51.138;6.950;2024-02-16T01:39:47;100582.00;;;14.03;78.65
71248;BME280;73325;51.138;6.950;2024-02-16T01:42:18;100580.00;;;14.03;78.40
71248;BME280;73325;51.138;6.950;2024-02-16T01:44:49;100579.00;;;14.05;79.03
71248;BME280;73325;51.138;6.950;2024-02-16T01:47:19;100577.00;;;14.06;78.05
71248;BME280;73325;51.138;6.950;2024-02-16T01:49:50;100574.00;;;14.08;78.10
71248;BME280;73325;51.138;6.950;2024-02-16T01:52:20;100574.00;;;14.09;78.17
71248;BME280;73325;51.138;6.950;2024-02-16T01:54:51;100574.00;;;14.11;78.12
71248;BME280;73325;51.138;6.950;2024-02-16T01:57:22;100573.00;;;14.12;77.90
71248;BME280;73325;51.138;6.950;2024-02-16T01:59:52;100572.00;;;14.13;77.96
71248;BME280;73325;51.138;6.950;2024-02-16T02:02:23;100571.00;;;14.13;78.21
71248;BME280;73325;51.138;6.950;2024-02-16T02:04:53;100571.00;;;14.13;77.92
71248;BME280;73325;51.138;6.950;2024-02-16T02:07:27;100571.00;;;14.13;78.24
71248;BME280;73325;51.138;6.950;2024-02-16T02:09:55;100571.00;;;14.13;78.38
71248;BME280;73325;51.138;6.950;2024-02-16T02:12:24;100571.00;;;14.12;77.91
71248;BME280;73325;51.138;6.950;2024-02-16T02:14:55;100571.00;;;14.13;77.60
71248;BME280;73325;51.138;6.950;2024-02-16T02:17:25;100573.00;;;14.14;78.14
71248;BME280;73325;51.138;6.950;2024-02-16T02:19:56;100573.00;;;14.14;77.99
71248;BME280;73325;51.138;6.950;2024-02-16T02:22:26;100574.00;;;14.15;77.94
71248;BME280;73325;51.138;6.950;2024-02-16T02:24:57;100574.00;;;14.15;78.07
71248;BME280;73325;51.138;6.950;2024-02-16T02:27:27;100574.00;;;14.15;78.14
71248;BME280;73325;51.138;6.950;2024-02-16T02:29:58;100573.00;;;14.15;78.10
71248;BME280;73325;51.138;6.950;2024-02-16T02:32:28;100570.00;;;14.15;78.24
71248;BME280;73325;51.138;6.950;2024-02-16T02:34:59;100568.00;;;14.15;78.41
71248;BME280;73325;51.138;6.950;2024-02-16T02:37:29;100567.00;;;14.15;78.20
71248;BME280;73325;51.138;6.950;2024-02-16T02:40:00;100564.00;;;14.14;79.08
71248;BME280;73325;51.138;6.950;2024-02-16T02:42:30;100562.00;;;14.13;79.96
71248;BME280;73325;51.138;6.950;2024-02-16T02:45:04;100559.00;;;14.11;79.95
71248;BME280;73325;51.138;6.950;2024-02-16T02:47:31;100556.00;;;14.07;80.75
71248;BME280;73325;51.138;6.950;2024-02-16T02:50:01;100551.00;;;14.03;80.32
71248;BME280;73325;51.138;6.950;2024-02-16T02:52:32;100549.00;;;13.98;80.90
71248;BME280;73325;51.138;6.950;2024-02-16T02:55:03;100546.00;;;13.94;80.39
71248;BME280;73325;51.138;6.950;2024-02-16T02:57:33;100542.00;;;13.92;80.68
71248;BME280;73325;51.138;6.950;2024-02-16T03:00:05;100542.00;;;13.90;80.80
71248;BME280;73325;51.138;6.950;2024-02-16T03:02:34;100541.00;;;13.89;80.32
71248;BME280;73325;51.138;6.950;2024-02-16T03:05:06;100539.00;;;13.89;79.95
71248;BME280;73325;51.138;6.950;2024-02-16T03:07:36;100536.00;;;13.90;79.95
71248;BME280;73325;51.138;6.950;2024-02-16T03:10:07;100536.00;;;13.91;80.22
71248;BME280;73325;51.138;6.950;2024-02-16T03:12:36;100536.00;;;13.92;80.22
71248;BME280;73325;51.138;6.950;2024-02-16T03:15:08;100536.00;;;13.93;80.45
71248;BME280;73325;51.138;6.950;2024-02-16T03:17:37;100536.00;;;13.93;80.62
71248;BME280;73325;51.138;6.950;2024-02-16T03:20:09;100535.00;;;13.92;81.01
71248;BME280;73325;51.138;6.950;2024-02-16T03:22:38;100534.00;;;13.91;81.03
71248;BME280;73325;51.138;6.950;2024-02-16T03:25:09;100532.00;;;13.89;81.11
71248;BME280;73325;51.138;6.950;2024-02-16T03:27:40;100531.00;;;13.88;80.82
71248;BME280;73325;51.138;6.950;2024-02-16T03:30:11;100531.00;;;13.88;80.76
71248;BME280;73325;51.138;6.950;2024-02-16T03:32:41;100529.00;;;13.88;80.99
71248;BME280;73325;51.138;6.950;2024-02-16T03:35:12;100528.00;;;13.88;80.86
71248;BME280;73325;51.138;6.950;2024-02-16T03:37:42;100528.00;;;13.88;81.03
71248;BME280;73325;51.138;6.950;2024-02-16T03:40:13;100529.00;;;13.88;80.62
71248;BME280;73325;51.138;6.950;2024-02-16T03:42:43;100528.00;;;13.88;81.14
71248;BME280;73325;51.138;6.950;2024-02-16T03:45:14;100527.00;;;13.88;80.67
71248;BME280;73325;51.138;6.950;2024-02-16T03:47:45;100525.00;;;13.89;80.90
71248;BME280;73325;51.138;6.950;2024-02-16T03:50:15;100523.00;;;13.89;80.92
71248;BME280;73325;51.138;6.950;2024-02-16T03:52:46;100523.00;;;13.90;80.59
71248;BME280;73325;51.138;6.950;2024-02-16T03:55:16;100523.00;;;13.91;81.08
71248;BME280;73325;51.138;6.950;2024-02-16T03:57:47;100524.00;;;13.91;81.23
71248;BME280;73325;51.138;6.950;2024-02-16T04:00:17;100525.00;;;13.91;80.88
71248;BME280;73325;51.138;6.950;2024-02-16T04:02:48;100525.00;;;13.90;81.21
71248;BME280;73325;51.138;6.950;2024-02-16T04:05:18;100526.00;;;13.90;80.90
71248;BME280;73325;51.138;6.950;2024-02-16T04:07:49;100526.00;;;13.90;80.78
71248;BME280;73325;51.138;6.950;2024-02-16T04:10:19;100524.00;;;13.90;80.80
71248;BME280;73325;51.138;6.950;2024-02-16T04:12:49;100525.00;;;13.91;80.91
71248;BME280;73325;51.138;6.950;2024-02-16T04:15:20;100526.00;;;13.92;81.27
71248;BME280;73325;51.138;6.950;2024-02-16T04:17:50;100526.00;;;13.92;80.96
71248;BME280;73325;51.138;6.950;2024-02-16T04:20:21;100526.00;;;13.93;80.92
71248;BME280;73325;51.138;6.950;2024-02-16T04:22:51;100524.00;;;13.94;80.85
71248;BME280;73325;51.138;6.950;2024-02-16T04:25:22;100523.00;;;13.96;80.68
71248;BME280;73325;51.138;6.950;2024-02-16T04:27:53;100521.00;;;13.97;80.73
71248;BME280;73325;51.138;6.950;2024-02-16T04:30:23;100518.00;;;13.99;80.57
71248;BME280;73325;51.138;6.950;2024-02-16T04:32:54;100519.00;;;14.01;80.52
71248;BME280;73325;51.138;6.950;2024-02-16T04:35:24;100524.00;;;14.02;80.75
71248;BME280;73325;51.138;6.950;2024-02-16T04:37:54;100529.00;;;14.04;80.81
71248;BME280;73325;51.138;6.950;2024-02-16T04:40:25;100531.00;;;14.05;80.86
71248;BME280;73325;51.138;6.950;2024-02-16T04:42:55;100535.00;;;14.06;81.20
71248;BME280;73325;51.138;6.950;2024-02-16T04:45:26;100536.00;;;14.06;81.29
71248;BME280;73325;51.138;6.950;2024-02-16T04:47:56;100540.00;;;14.05;81.56
71248;BME280;73325;51.138;6.950;2024-02-16T04:50:27;100543.00;;;14.03;81.74
71248;BME280;73325;51.138;6.950;2024-02-16T04:52:57;100546.00;;;14.02;81.80
71248;BME280;73325;51.138;6.950;2024-02-16T04:55:28;100552.00;;;14.00;82.10
71248;BME280;73325;51.138;6.950;2024-02-16T04:57:58;100556.00;;;13.98;81.98
71248;BME280;73325;51.138;6.950;2024-02-16T05:00:29;100560.00;;;13.95;82.27
71248;BME280;73325;51.138;6.950;2024-02-16T05:02:59;100565.00;;;13.92;82.66
71248;BME280;73325;51.138;6.950;2024-02-16T05:05:30;100568.00;;;13.89;82.77
71248;BME280;73325;51.138;6.950;2024-02-16T05:08:00;100570.00;;;13.86;82.53
71248;BME280;73325;51.138;6.950;2024-02-16T05:10:31;100570.00;;;13.83;83.17
71248;BME280;73325;51.138;6.950;2024-02-16T05:13:01;100570.00;;;13.80;83.22
71248;BME280;73325;51.138;6.950;2024-02-16T05:15:32;100570.00;;;13.78;83.54
71248;BME280;73325;51.138;6.950;2024-02-16T05:18:02;100569.00;;;13.75;83.60
71248;BME280;73325;51.138;6.950;2024-02-16T05:20:33;100568.00;;;13.74;83.68
71248;BME280;73325;51.138;6.950;2024-02-16T05:23:03;100566.00;;;13.73;83.95
71248;BME280;73325;51.138;6.950;2024-02-16T05:25:34;100565.00;;;13.71;83.83
71248;BME280;73325;51.138;6.950;2024-02-16T05:28:05;100565.00;;;13.70;83.96
71248;BME280;73325;51.138;6.950;2024-02-16T05:30:36;100563.00;;;13.69;84.10
71248;BME280;73325;51.138;6.950;2024-02-16T05:33:06;100562.00;;;13.68;84.27
71248;BME280;73325;51.138;6.950;2024-02-16T05:35:37;100561.00;;;13.67;84.09
71248;BME280;73325;51.138;6.950;2024-02-16T05:38:09;100561.00;;;13.65;84.23
71248;BME280;73325;51.138;6.950;2024-02-16T05:40:41;100559.00;;;13.64;84.25
71248;BME280;73325;51.138;6.950;2024-02-16T05:43:08;100557.00;;;13.63;84.17
71248;BME280;73325;51.138;6.950;2024-02-16T05:45:39;100555.00;;;13.62;84.12
71248;BME280;73325;51.138;6.950;2024-02-16T05:48:09;100553.00;;;13.62;84.02
71248;BME280;73325;51.138;6.950;2024-02-16T05:50:39;100552.00;;;13.61;83.92
71248;BME280;73325;51.138;6.950;2024-02-16T05:53:10;100551.00;;;13.61;84.01
71248;BME280;73325;51.138;6.950;2024-02-16T05:55:41;100551.00;;;13.60;84.25
71248;BME280;73325;51.138;6.950;2024-02-16T05:58:11;100551.00;;;13.59;84.08
71248;BME280;73325;51.138;6.950;2024-02-16T06:00:42;100550.00;;;13.58;84.08
71248;BME280;73325;51.138;6.950;2024-02-16T06:03:13;100547.00;;;13.57;84.13
71248;BME280;73325;51.138;6.950;2024-02-16T06:05:43;100547.00;;;13.56;83.99
71248;BME280;73325;51.138;6.950;2024-02-16T06:08:14;100548.00;;;13.56;84.04
71248;BME280;73325;51.138;6.950;2024-02-16T06:10:44;100550.00;;;13.55;84.06
71248;BME280;73325;51.138;6.950;2024-02-16T06:13:14;100552.00;;;13.54;84.21
71248;BME280;73325;51.138;6.950;2024-02-16T06:15:45;100554.00;;;13.53;84.14
71248;BME280;73325;51.138;6.950;2024-02-16T06:18:15;100556.00;;;13.52;84.39
71248;BME280;73325;51.138;6.950;2024-02-16T06:20:46;100559.00;;;13.52;84.18
71248;BME280;73325;51.138;6.950;2024-02-16T06:23:16;100560.00;;;13.52;84.23
71248;BME280;73325;51.138;6.950;2024-02-16T06:25:47;100562.00;;;13.52;84.14
71248;BME280;73325;51.138;6.950;2024-02-16T06:28:17;100562.00;;;13.53;84.05
71248;BME280;73325;51.138;6.950;2024-02-16T06:30:48;100562.00;;;13.54;84.21
71248;BME280;73325;51.138;6.950;2024-02-16T06:33:18;100560.00;;;13.56;84.14
71248;BME280;73325;51.138;6.950;2024-02-16T06:35:49;100559.00;;;13.57;84.07
71248;BME280;73325;51.138;6.950;2024-02-16T06:38:19;100558.00;;;13.57;84.05
71248;BME280;73325;51.138;6.950;2024-02-16T06:40:50;100558.00;;;13.59;84.00
71248;BME280;73325;51.138;6.950;2024-02-16T06:43:20;100556.00;;;13.61;83.77
71248;BME280;73325;51.138;6.950;2024-02-16T06:45:51;100556.00;;;13.62;83.83
71248;BME280;73325;51.138;6.950;2024-02-16T06:48:21;100555.00;;;13.63;83.63
71248;BME280;73325;51.138;6.950;2024-02-16T06:50:51;100555.00;;;13.65;82.93
71248;BME280;73325;51.138;6.950;2024-02-16T06:53:22;100558.00;;;13.68;83.39
71248;BME280;73325;51.138;6.950;2024-02-16T06:55:52;100567.00;;;13.70;83.29
71248;BME280;73325;51.138;6.950;2024-02-16T06:58:23;100574.00;;;13.71;83.44
71248;BME280;73325;51.138;6.950;2024-02-16T07:00:53;100582.00;;;13.72;83.65
71248;BME280;73325;51.138;6.950;2024-02-16T07:03:24;100590.00;;;13.71;83.65
71248;BME280;73325;51.138;6.950;2024-02-16T07:05:54;100598.00;;;13.71;83.96
71248;BME280;73325;51.138;6.950;2024-02-16T07:08:25;100603.00;;;13.70;83.77
71248;BME280;73325;51.138;6.950;2024-02-16T07:10:55;100607.00;;;13.69;83.91
71248;BME280;73325;51.138;6.950;2024-02-16T07:13:26;100611.00;;;13.70;83.85
71248;BME280;73325;51.138;6.950;2024-02-16T07:15:56;100613.00;;;13.70;83.83
71248;BME280;73325;51.138;6.950;2024-02-16T07:18:27;100617.00;;;13.71;84.02
71248;BME280;73325;51.138;6.950;2024-02-16T07:20:57;100619.00;;;13.71;83.76
71248;BME280;73325;51.138;6.950;2024-02-16T07:23:28;100622.00;;;13.72;83.43
71248;BME280;73325;51.138;6.950;2024-02-16T07:25:59;100626.00;;;13.74;83.21
71248;BME280;73325;51.138;6.950;2024-02-16T07:28:29;100629.00;;;13.75;83.53
71248;BME280;73325;51.138;6.950;2024-02-16T07:31:00;100633.00;;;13.77;83.38
71248;BME280;73325;51.138;6.950;2024-02-16T07:33:30;100636.00;;;13.79;82.92
71248;BME280;73325;51.138;6.950;2024-02-16T07:36:01;100639.00;;;13.82;83.28
71248;BME280;73325;51.138;6.950;2024-02-16T07:38:31;100643.00;;;13.85;82.81
71248;BME280;73325;51.138;6.950;2024-02-16T07:41:02;100647.00;;;13.88;82.98
71248;BME280;73325;51.138;6.950;2024-02-16T07:43:33;100651.00;;;13.92;82.92
71248;BME280;73325;51.138;6.950;2024-02-16T07:46:04;100656.00;;;13.95;83.02
71248;BME280;73325;51.138;6.950;2024-02-16T07:48:34;100659.00;;;13.97;82.76
71248;BME280;73325;51.138;6.950;2024-02-16T07:51:05;100663.00;;;14.00;82.89
71248;BME280;73325;51.138;6.950;2024-02-16T07:53:35;100667.00;;;14.03;82.25
71248;BME280;73325;51.138;6.950;2024-02-16T07:56:06;100669.00;;;14.07;82.27
71248;BME280;73325;51.138;6.950;2024-02-16T07:58:36;100671.00;;;14.10;82.13
71248;BME280;73325;51.138;6.950;2024-02-16T08:01:07;100673.00;;;14.13;82.18
71248;BME280;73325;51.138;6.950;2024-02-16T08:03:38;100676.00;;;14.15;82.16
71248;BME280;73325;51.138;6.950;2024-02-16T08:06:08;100679.00;;;14.18;81.92
71248;BME280;73325;51.138;6.950;2024-02-16T08:08:39;100682.00;;;14.20;81.86
71248;BME280;73325;51.138;6.950;2024-02-16T08:11:09;100686.00;;;14.23;81.52
71248;BME280;73325;51.138;6.950;2024-02-16T08:13:40;100690.00;;;14.25;81.43
71248;BME280;73325;51.138;6.950;2024-02-16T08:16:11;100694.00;;;14.28;81.02
71248;BME280;73325;51.138;6.950;2024-02-16T08:18:43;100698.00;;;14.30;80.75
71248;BME280;73325;51.138;6.950;2024-02-16T08:21:12;100700.00;;;14.33;81.12
71248;BME280;73325;51.138;6.950;2024-02-16T08:23:42;100701.00;;;14.36;80.27
71248;BME280;73325;51.138;6.950;2024-02-16T08:26:13;100702.00;;;14.39;81.82
71248;BME280;73325;51.138;6.950;2024-02-16T08:28:44;100703.00;;;14.41;81.52
71248;BME280;73325;51.138;6.950;2024-02-16T08:31:15;100704.00;;;14.43;81.24
71248;BME280;73325;51.138;6.950;2024-02-16T08:33:45;100705.00;;;14.45;80.98
71248;BME280;73325;51.138;6.950;2024-02-16T08:36:16;100707.00;;;14.47;81.34
71248;BME280;73325;51.138;6.950;2024-02-16T08:38:46;100709.00;;;14.49;81.54
71248;BME280;73325;51.138;6.950;2024-02-16T08:41:17;100713.00;;;14.51;82.22
71248;BME280;73325;51.138;6.950;2024-02-16T08:43:48;100715.00;;;14.53;81.70
71248;BME280;73325;51.138;6.950;2024-02-16T08:46:18;100718.00;;;14.55;82.43
71248;BME280;73325;51.138;6.950;2024-02-16T08:48:48;100720.00;;;14.57;82.13
71248;BME280;73325;51.138;6.950;2024-02-16T08:51:19;100722.00;;;14.60;82.15
71248;BME280;73325;51.138;6.950;2024-02-16T08:53:49;100723.00;;;14.63;81.25
71248;BME280;73325;51.138;6.950;2024-02-16T08:56:20;100725.00;;;14.67;81.04
71248;BME280;73325;51.138;6.950;2024-02-16T08:58:51;100727.00;;;14.72;80.67
71248;BME280;73325;51.138;6.950;2024-02-16T09:01:31;100729.00;;;14.76;79.66
71248;BME280;73325;51.138;6.950;2024-02-16T09:03:51;100732.00;;;14.81;80.51
71248;BME280;73325;51.138;6.950;2024-02-16T09:06:21;100731.00;;;14.86;79.87
71248;BME280;73325;51.138;6.950;2024-02-16T09:08:52;100732.00;;;14.90;79.82
71248;BME280;73325;51.138;6.950;2024-02-16T09:11:22;100733.00;;;14.93;80.08
71248;BME280;73325;51.138;6.950;2024-02-16T09:13:53;100737.00;;;14.96;79.77
71248;BME280;73325;51.138;6.950;2024-02-16T09:16:24;100739.00;;;14.98;79.34
71248;BME280;73325;51.138;6.950;2024-02-16T09:18:54;100742.00;;;15.00;79.75
71248;BME280;73325;51.138;6.950;2024-02-16T09:21:24;100746.00;;;15.02;80.24
71248;BME280;73325;51.138;6.950;2024-02-16T09:23:54;100748.00;;;15.04;81.45
71248;BME280;73325;51.138;6.950;2024-02-16T09:26:25;100751.00;;;15.06;80.34
71248;BME280;73325;51.138;6.950;2024-02-16T09:28:55;100755.00;;;15.07;79.71
71248;BME280;73325;51.138;6.950;2024-02-16T09:31:25;100756.00;;;15.09;80.16
71248;BME280;73325;51.138;6.950;2024-02-16T09:33:56;100759.00;;;15.12;79.79
71248;BME280;73325;51.138;6.950;2024-02-16T09:36:26;100762.00;;;15.14;80.39
71248;BME280;73325;51.138;6.950;2024-02-16T09:38:56;100765.00;;;15.17;80.00
71248;BME280;73325;51.138;6.950;2024-02-16T09:41:27;100767.00;;;15.19;80.38
71248;BME280;73325;51.138;6.950;2024-02-16T09:43:57;100771.00;;;15.21;80.16
71248;BME280;73325;51.138;6.950;2024-02-16T09:46:28;100774.00;;;15.23;79.53
71248;BME280;73325;51.138;6.950;2024-02-16T09:49:01;100776.00;;;15.24;79.89
71248;BME280;73325;51.138;6.950;2024-02-16T09:51:28;100777.00;;;15.25;79.96
71248;BME280;73325;51.138;6.950;2024-02-16T09:53:59;100780.00;;;15.26;80.06
71248;BME280;73325;51.138;6.950;2024-02-16T09:56:29;100781.00;;;15.28;79.73
71248;BME280;73325;51.138;6.950;2024-02-16T09:58:59;100783.00;;;15.30;80.52
71248;BME280;73325;51.138;6.950;2024-02-16T10:01:30;100787.00;;;15.33;80.63
71248;BME280;73325;51.138;6.950;2024-02-16T10:04:06;100789.00;;;15.37;80.10
71248;BME280;73325;51.138;6.950;2024-02-16T10:06:31;100792.00;;;15.41;80.36
71248;BME280;73325;51.138;6.950;2024-02-16T10:09:01;100794.00;;;15.43;79.80
71248;BME280;73325;51.138;6.950;2024-02-16T10:11:32;100798.00;;;15.46;80.23
71248;BME280;73325;51.138;6.950;2024-02-16T10:14:03;100802.00;;;15.47;81.14
71248;BME280;73325;51.138;6.950;2024-02-16T10:16:32;100806.00;;;15.48;81.49
71248;BME280;73325;51.138;6.950;2024-02-16T10:19:06;100811.00;;;15.47;81.29
71248;BME280;73325;51.138;6.950;2024-02-16T10:21:33;100815.00;;;15.46;81.83
71248;BME280;73325;51.138;6.950;2024-02-16T10:24:08;100817.00;;;15.46;81.54
71248;BME280;73325;51.138;6.950;2024-02-16T10:26:37;100820.00;;;15.46;82.12
71248;BME280;73325;51.138;6.950;2024-02-16T10:29:08;100823.00;;;15.48;81.75
71248;BME280;73325;51.138;6.950;2024-02-16T10:31:35;100825.00;;;15.51;81.34
71248;BME280;73325;51.138;6.950;2024-02-16T10:34:07;100828.00;;;15.54;80.97
71248;BME280;73325;51.138;6.950;2024-02-16T10:36:39;100832.00;;;15.57;80.42
71248;BME280;73325;51.138;6.950;2024-02-16T10:39:07;100838.00;;;15.61;80.99
71248;BME280;73325;51.138;6.950;2024-02-16T10:41:38;100843.00;;;15.64;80.53
71248;BME280;73325;51.138;6.950;2024-02-16T10:44:08;100846.00;;;15.65;80.33
71248;BME280;73325;51.138;6.950;2024-02-16T10:46:39;100849.00;;;15.66;80.86
71248;BME280;73325;51.138;6.950;2024-02-16T10:49:09;100852.00;;;15.65;82.08
71248;BME280;73325;51.138;6.950;2024-02-16T10:51:54;100856.00;;;15.64;82.55
71248;BME280;73325;51.138;6.950;2024-02-16T10:54:13;100859.00;;;15.61;83.90
71248;BME280;73325;51.138;6.950;2024-02-16T10:56:41;100862.00;;;15.58;84.37
71248;BME280;73325;51.138;6.950;2024-02-16T10:59:12;100865.00;;;15.54;84.07
71248;BME280;73325;51.138;6.950;2024-02-16T11:01:44;100866.00;;;15.50;85.24
71248;BME280;73325;51.138;6.950;2024-02-16T11:04:18;100868.00;;;15.47;84.05
71248;BME280;73325;51.138;6.950;2024-02-16T11:06:52;100869.00;;;15.44;84.14
71248;BME280;73325;51.138;6.950;2024-02-16T11:11:53;100874.00;;;15.39;83.70
71248;BME280;73325;51.138;6.950;2024-02-16T11:14:15;100876.00;;;15.36;83.58
71248;BME280;73325;51.138;6.950;2024-02-16T11:16:46;100878.00;;;15.33;83.69
71248;BME280;73325;51.138;6.950;2024-02-16T11:19:16;100880.00;;;15.30;83.73
71248;BME280;73325;51.138;6.950;2024-02-16T11:21:58;100880.00;;;15.28;83.09
71248;BME280;73325;51.138;6.950;2024-02-16T11:24:17;100882.00;;;15.26;83.00
71248;BME280;73325;51.138;6.950;2024-02-16T11:26:47;100882.00;;;15.25;83.97
71248;BME280;73325;51.138;6.950;2024-02-16T11:29:18;100884.00;;;15.24;83.20
71248;BME280;73325;51.138;6.950;2024-02-16T11:31:48;100886.00;;;15.24;83.36
71248;BME280;73325;51.138;6.950;2024-02-16T11:34:22;100886.00;;;15.22;82.83
71248;BME280;73325;51.138;6.950;2024-02-16T11:36:51;100886.00;;;15.21;83.35
71248;BME280;73325;51.138;6.950;2024-02-16T11:39:20;100886.00;;;15.20;83.42
71248;BME280;73325;51.138;6.950;2024-02-16T11:42:04;100886.00;;;15.19;83.54
71248;BME280;73325;51.138;6.950;2024-02-16T11:44:20;100886.00;;;15.19;83.36
71248;BME280;73325;51.138;6.950;2024-02-16T11:46:53;100888.00;;;15.18;83.73
71248;BME280;73325;51.138;6.950;2024-02-16T11:49:21;100888.00;;;15.17;83.40
71248;BME280;73325;51.138;6.950;2024-02-16T11:51:52;100889.00;;;15.17;84.24
71248;BME280;73325;51.138;6.950;2024-02-16T11:54:22;100891.00;;;15.16;84.07
71248;BME280;73325;51.138;6.950;2024-02-16T11:56:52;100892.00;;;15.15;84.64
71248;BME280;73325;51.138;6.950;2024-02-16T11:59:23;100893.00;;;15.13;84.07
71248;BME280;73325;51.138;6.950;2024-02-16T12:01:55;100894.00;;;15.11;84.89
71248;BME280;73325;51.138;6.950;2024-02-16T12:04:28;100895.00;;;15.09;85.60
71248;BME280;73325;51.138;6.950;2024-02-16T12:06:58;100893.00;;;15.06;84.17
71248;BME280;73325;51.138;6.950;2024-02-16T12:09:24;100893.00;;;15.04;84.40
71248;BME280;73325;51.138;6.950;2024-02-16T12:11:55;100894.00;;;15.03;85.08
71248;BME280;73325;51.138;6.950;2024-02-16T12:14:25;100894.00;;;15.02;85.29
71248;BME280;73325;51.138;6.950;2024-02-16T12:16:57;100895.00;;;15.00;85.94
71248;BME280;73325;51.138;6.950;2024-02-16T12:19:27;100895.00;;;14.99;85.94
71248;BME280;73325;51.138;6.950;2024-02-16T12:21:57;100896.00;;;14.98;85.57
71248;BME280;73325;51.138;6.950;2024-02-16T12:24:27;100896.00;;;14.96;86.12
71248;BME280;73325;51.138;6.950;2024-02-16T12:26:57;100897.00;;;14.95;86.55
71248;BME280;73325;51.138;6.950;2024-02-16T12:29:28;100900.00;;;14.94;86.22
71248;BME280;73325;51.138;6.950;2024-02-16T12:31:58;100901.00;;;14.92;86.53
71248;BME280;73325;51.138;6.950;2024-02-16T12:34:28;100904.00;;;14.91;86.89
71248;BME280;73325;51.138;6.950;2024-02-16T12:37:00;100907.00;;;14.88;87.73
71248;BME280;73325;51.138;6.950;2024-02-16T12:39:29;100910.00;;;14.85;88.81
71248;BME280;73325;51.138;6.950;2024-02-16T12:41:59;100912.00;;;14.80;90.06
71248;BME280;73325;51.138;6.950;2024-02-16T12:44:30;100915.00;;;14.75;90.99
71248;BME280;73325;51.138;6.950;2024-02-16T12:47:00;100917.00;;;14.68;91.99
71248;BME280;73325;51.138;6.950;2024-02-16T12:49:30;100919.00;;;14.60;93.06
71248;BME280;73325;51.138;6.950;2024-02-16T12:52:00;100923.00;;;14.51;93.76
71248;BME280;73325;51.138;6.950;2024-02-16T12:54:31;100925.00;;;14.42;94.45
71248;BME280;73325;51.138;6.950;2024-02-16T12:57:01;100928.00;;;14.33;94.92
71248;BME280;73325;51.138;6.950;2024-02-16T12:59:31;100932.00;;;14.24;95.57
71248;BME280;73325;51.138;6.950;2024-02-16T13:02:01;100935.00;;;14.16;95.98
71248;BME280;73325;51.138;6.950;2024-02-16T13:04:32;100937.00;;;14.08;96.35
71248;BME280;73325;51.138;6.950;2024-02-16T13:07:02;100940.00;;;14.01;96.64
71248;BME280;73325;51.138;6.950;2024-02-16T13:09:32;100942.00;;;13.95;96.98